Time;durP1;ratioP1;P1;durP2;ratioP2;P2;SDS_P1;SDS_P2;PMS_P1;PMS_P2;Temp;Humidity;BMP_temperature;BMP_pressure;BME280_temperature;BME280_humidity;BME280_pressure;Samples;Min_cycle;Max_cycle;Signal;HPM_P1;HPM_P2
2023/09/03 00:00:22;;;;;;;42.72;32.67;;;;;;;;;;5092022;28;20305;-70
2023/09/03 00:02:48;;;;;;;50.08;35.15;;;;;;;;;;5092918;28;20038;-69
2023/09/03 00:05:13;;;;;;;45.88;32.28;;;;;;;;;;5091062;28;20024;-69
2023/09/03 00:07:38;;;;;;;47.83;33.15;;;;;;;;;;5092002;28;20069;-68
2023/09/03 00:10:04;;;;;;;46.67;32.33;;;;;;;;;;5091508;28;20036;-69
2023/09/03 00:12:29;;;;;;;52.20;34.35;;;;;;;;;;5078616;28;20278;-69
2023/09/03 00:14:54;;;;;;;45.67;32.60;;;;;;;;;;5080920;28;20035;-68
2023/09/03 00:17:19;;;;;;;50.83;36.33;;;;;;;;;;5079175;28;20328;-68
2023/09/03 00:19:45;;;;;;;49.60;34.20;;;;;;;;;;5073137;28;20029;-69
2023/09/03 00:22:10;;;;;;;43.45;33.20;;;;;;;;;;5087443;28;20273;-69
2023/09/03 00:24:35;;;;;;;32.67;26.97;;;;;;;;;;5078110;28;20107;-69
2023/09/03 00:27:00;;;;;;;35.73;29.60;;;;;;;;;;5081283;28;20786;-69
2023/09/03 00:29:26;;;;;;;42.20;31.00;;;;;;;;;;5091673;28;20644;-70
2023/09/03 00:31:52;;;;;;;43.45;32.40;;;;;;;;;;5088014;28;20274;-70
2023/09/03 00:34:17;;;;;;;47.38;33.15;;;;;;;;;;5048918;28;20607;-71
2023/09/03 00:36:42;;;;;;;55.00;35.70;;;;;;;;;;5071769;28;20066;-72
2023/09/03 00:39:08;;;;;;;48.17;33.67;;;;;;;;;;5091197;28;20327;-70
2023/09/03 00:41:33;;;;;;;55.53;37.55;;;;;;;;;;5090474;28;20055;-69
2023/09/03 00:43:59;;;;;;;56.67;38.10;;;;;;;;;;5090345;28;20055;-69
2023/09/03 00:46:24;;;;;;;52.27;35.97;;;;;;;;;;5088727;28;20266;-68
2023/09/03 00:48:49;;;;;;;54.92;38.75;;;;;;;;;;5049526;28;20331;-68
2023/09/03 00:51:15;;;;;;;54.90;39.20;;;;;;;;;;5034525;28;20868;-69
2023/09/03 00:53:42;;;;;;;57.50;39.25;;;;;;;;;;5032594;28;20087;-69
2023/09/03 00:56:08;;;;;;;57.40;38.17;;;;;;;;;;5035746;28;20204;-69
2023/09/03 00:58:34;;;;;;;54.75;38.78;;;;;;;;;;5040963;28;20028;-69
2023/09/03 01:00:59;;;;;;;54.25;37.78;;;;;;;;;;5058299;28;20044;-68
2023/09/03 01:03:26;;;;;;;48.60;35.40;;;;;;;;;;5074330;28;20028;-69
2023/09/03 01:05:51;;;;;;;55.33;39.40;;;;;;;;;;5085605;28;20491;-68
2023/09/03 01:08:16;;;;;;;54.50;37.60;;;;;;;;;;5075385;28;20055;-69
2023/09/03 01:10:51;;;;;;;43.90;32.95;;;;;;;;;;5086649;28;20024;-69
2023/09/03 01:13:29;;;;;;;44.60;33.65;;;;;;;;;;5080120;28;20351;-69
2023/09/03 01:15:55;;;;;;;52.38;34.65;;;;;;;;;;5088948;28;20028;-69
2023/09/03 01:18:22;;;;;;;49.40;34.50;;;;;;;;;;5072887;28;20463;-69
2023/09/03 01:21:08;;;;;;;40.40;31.30;;;;;;;;;;5074461;28;20083;-70
2023/09/03 01:23:36;;;;;;;44.65;32.53;;;;;;;;;;5033994;28;20052;-68
2023/09/03 01:26:10;;;;;;;37.13;30.25;;;;;;;;;;5031561;28;20040;-68
2023/09/03 01:28:39;;;;;;;42.72;31.95;;;;;;;;;;5075119;28;20069;-69
2023/09/03 01:31:10;;;;;;;52.90;36.35;;;;;;;;;;5076802;28;20091;-69
2023/09/03 01:33:37;;;;;;;52.67;36.70;;;;;;;;;;5072096;28;20157;-69
2023/09/03 01:36:06;;;;;;;56.60;37.05;;;;;;;;;;5082814;28;20062;-69
2023/09/03 01:38:31;;;;;;;56.65;39.70;;;;;;;;;;5085647;28;20047;-69
2023/09/03 01:40:59;;;;;;;55.80;40.10;;;;;;;;;;5070689;28;20486;-69
2023/09/03 01:43:24;;;;;;;60.47;40.60;;;;;;;;;;5074704;28;20119;-69
2023/09/03 01:45:49;;;;;;;55.67;39.58;;;;;;;;;;5084466;28;20556;-69
2023/09/03 01:48:25;;;;;;;58.97;40.57;;;;;;;;;;5078116;28;20390;-69
2023/09/03 01:51:29;;;;;;;53.28;38.55;;;;;;;;;;5091437;28;20024;-69
2023/09/03 01:53:57;;;;;;;58.03;38.92;;;;;;;;;;4970849;28;20034;-70
2023/09/03 01:56:24;;;;;;;57.38;38.10;;;;;;;;;;4970797;28;20101;-69
2023/09/03 01:58:51;;;;;;;53.00;38.13;;;;;;;;;;5019738;28;20117;-69
2023/09/03 02:01:17;;;;;;;53.28;34.70;;;;;;;;;;5075055;28;20125;-69
2023/09/03 02:03:45;;;;;;;50.00;34.17;;;;;;;;;;5088773;28;20043;-69
2023/09/03 02:06:10;;;;;;;47.63;33.67;;;;;;;;;;5081439;28;20378;-69
2023/09/03 02:08:36;;;;;;;43.25;32.17;;;;;;;;;;5088354;28;20032;-69
2023/09/03 02:11:01;;;;;;;50.40;35.10;;;;;;;;;;5085563;28;20020;-69
2023/09/03 02:13:26;;;;;;;44.42;29.75;;;;;;;;;;5079983;28;20290;-70
2023/09/03 02:15:51;;;;;;;33.70;25.60;;;;;;;;;;5090817;28;20386;-69
2023/09/03 02:18:17;;;;;;;34.40;25.83;;;;;;;;;;5091370;28;20393;-69
2023/09/03 02:20:42;;;;;;;29.80;22.90;;;;;;;;;;5089672;28;20406;-69
2023/09/03 02:23:07;;;;;;;30.13;21.67;;;;;;;;;;5090387;28;20028;-69
2023/09/03 02:25:32;;;;;;;40.38;30.15;;;;;;;;;;5089515;28;20274;-69
2023/09/03 02:27:58;;;;;;;43.73;30.17;;;;;;;;;;5090729;28;20467;-69
2023/09/03 02:30:23;;;;;;;45.03;29.70;;;;;;;;;;5089162;28;20699;-69
2023/09/03 02:32:48;;;;;;;45.77;29.77;;;;;;;;;;5090138;28;20278;-69
2023/09/03 02:35:13;;;;;;;40.93;28.13;;;;;;;;;;5089144;28;20353;-69
2023/09/03 02:37:38;;;;;;;37.47;26.33;;;;;;;;;;5088826;28;20289;-69
2023/09/03 02:40:04;;;;;;;34.03;24.52;;;;;;;;;;5086186;28;20082;-69
2023/09/03 02:42:29;;;;;;;28.90;21.17;;;;;;;;;;5083581;28;20052;-69
2023/09/03 02:44:54;;;;;;;26.38;20.90;;;;;;;;;;5076578;28;20044;-69
2023/09/03 02:47:20;;;;;;;30.33;23.33;;;;;;;;;;5076561;28;20036;-69
2023/09/03 02:49:45;;;;;;;39.33;27.20;;;;;;;;;;5084224;28;20378;-70
2023/09/03 02:52:10;;;;;;;42.10;29.13;;;;;;;;;;5077880;28;20270;-69
2023/09/03 02:54:35;;;;;;;45.25;31.33;;;;;;;;;;5085291;28;20016;-70
2023/09/03 02:57:01;;;;;;;48.20;33.67;;;;;;;;;;5079858;28;20479;-69
2023/09/03 02:59:26;;;;;;;51.33;33.45;;;;;;;;;;5084513;28;20293;-69
2023/09/03 03:01:51;;;;;;;55.63;36.42;;;;;;;;;;5079400;28;20017;-69
2023/09/03 03:04:16;;;;;;;53.23;35.47;;;;;;;;;;5092330;28;20051;-70
2023/09/03 03:06:42;;;;;;;48.28;32.83;;;;;;;;;;5078674;28;20278;-70
2023/09/03 03:09:07;;;;;;;54.87;35.70;;;;;;;;;;5082562;28;20024;-69
2023/09/03 03:11:32;;;;;;;57.33;37.63;;;;;;;;;;5086922;28;20290;-69
2023/09/03 03:13:58;;;;;;;57.65;36.70;;;;;;;;;;5074115;28;20028;-68
2023/09/03 03:16:23;;;;;;;57.83;39.28;;;;;;;;;;5094005;28;20056;-68
2023/09/03 03:18:48;;;;;;;57.10;37.03;;;;;;;;;;5093042;28;20470;-68
2023/09/03 03:21:15;;;;;;;54.85;37.30;;;;;;;;;;5087434;28;20528;-68
2023/09/03 03:23:40;;;;;;;50.65;34.03;;;;;;;;;;5092091;28;20031;-69
2023/09/03 03:26:06;;;;;;;49.28;34.03;;;;;;;;;;5093095;28;20015;-69
2023/09/03 03:28:32;;;;;;;51.78;36.15;;;;;;;;;;5092794;28;20028;-68
2023/09/03 03:30:59;;;;;;;56.03;35.40;;;;;;;;;;5091182;28;20076;-68
2023/09/03 03:33:25;;;;;;;47.33;31.60;;;;;;;;;;5091627;28;20056;-69
2023/09/03 03:35:50;;;;;;;42.60;29.48;;;;;;;;;;5092089;28;20467;-69
2023/09/03 03:38:15;;;;;;;45.00;30.20;;;;;;;;;;5086694;28;20032;-69
2023/09/03 03:40:40;;;;;;;45.83;29.67;;;;;;;;;;5091471;28;20478;-69
2023/09/03 03:43:06;;;;;;;35.03;25.73;;;;;;;;;;5092020;28;20039;-69
2023/09/03 03:45:34;;;;;;;43.20;26.80;;;;;;;;;;5090674;28;20016;-69
2023/09/03 03:48:00;;;;;;;38.55;27.15;;;;;;;;;;5092082;28;20301;-69
2023/09/03 03:50:28;;;;;;;42.95;28.30;;;;;;;;;;5091737;28;20077;-69
2023/09/03 03:52:53;;;;;;;32.15;25.00;;;;;;;;;;5091774;28;20051;-69
2023/09/03 03:55:18;;;;;;;33.60;23.33;;;;;;;;;;5083713;28;20089;-69
2023/09/03 03:57:44;;;;;;;34.97;25.10;;;;;;;;;;5091935;28;20282;-69
2023/09/03 04:00:09;;;;;;;34.87;24.43;;;;;;;;;;5092307;28;20027;-69
2023/09/03 04:02:34;;;;;;;36.00;24.77;;;;;;;;;;5092704;28;20616;-68
2023/09/03 04:05:00;;;;;;;36.20;25.20;;;;;;;;;;5092167;28;20461;-69
2023/09/03 04:07:25;;;;;;;40.93;27.77;;;;;;;;;;5092367;28;20356;-69
2023/09/03 04:09:50;;;;;;;41.95;29.92;;;;;;;;;;5092680;28;20278;-68
2023/09/03 04:12:15;;;;;;;43.67;28.60;;;;;;;;;;5092981;28;20477;-68
2023/09/03 04:14:41;;;;;;;41.13;27.70;;;;;;;;;;5092941;28;20640;-68
2023/09/03 04:17:06;;;;;;;42.47;29.03;;;;;;;;;;5092542;28;20667;-69
2023/09/03 04:19:31;;;;;;;40.83;28.43;;;;;;;;;;5091889;28;20285;-69
2023/09/03 04:21:56;;;;;;;49.83;31.83;;;;;;;;;;5080061;28;20321;-69
2023/09/03 04:24:22;;;;;;;37.33;26.48;;;;;;;;;;5078422;28;20020;-69
2023/09/03 04:26:47;;;;;;;36.63;24.80;;;;;;;;;;5092425;28;20035;-68
2023/09/03 04:29:12;;;;;;;33.47;23.77;;;;;;;;;;5092091;28;20273;-68
2023/09/03 04:31:37;;;;;;;35.33;25.65;;;;;;;;;;5092277;28;20035;-69
2023/09/03 04:34:05;;;;;;;39.80;27.20;;;;;;;;;;5091267;28;20125;-68
2023/09/03 04:36:31;;;;;;;38.05;27.35;;;;;;;;;;5090607;28;20367;-68
2023/09/03 04:38:56;;;;;;;46.28;28.50;;;;;;;;;;5075839;28;20074;-68
2023/09/03 04:41:21;;;;;;;42.58;28.27;;;;;;;;;;5092421;28;20049;-68
2023/09/03 04:43:46;;;;;;;41.10;26.53;;;;;;;;;;5092659;28;20028;-68
2023/09/03 04:46:12;;;;;;;43.58;28.20;;;;;;;;;;5087167;28;20270;-69
2023/09/03 04:48:37;;;;;;;43.38;28.85;;;;;;;;;;5069529;28;20918;-69
2023/09/03 04:51:03;;;;;;;41.95;26.35;;;;;;;;;;5045229;28;20025;-69
2023/09/03 04:53:29;;;;;;;44.63;27.08;;;;;;;;;;5037268;28;20026;-69
2023/09/03 04:55:54;;;;;;;36.50;24.88;;;;;;;;;;5036525;28;20016;-69
2023/09/03 04:58:19;;;;;;;35.05;24.33;;;;;;;;;;5049346;28;20039;-69
2023/09/03 05:00:45;;;;;;;37.42;25.60;;;;;;;;;;5078739;28;20573;-69
2023/09/03 05:03:10;;;;;;;40.17;26.93;;;;;;;;;;5075503;28;20027;-69
2023/09/03 05:05:40;;;;;;;43.13;28.13;;;;;;;;;;5072001;28;21790;-69
2023/09/03 05:08:05;;;;;;;34.72;25.42;;;;;;;;;;5076353;28;20030;-68
2023/09/03 05:10:30;;;;;;;39.55;27.92;;;;;;;;;;5088543;28;20019;-68
2023/09/03 05:12:56;;;;;;;35.57;26.20;;;;;;;;;;5085199;28;20485;-69
2023/09/03 05:15:21;;;;;;;38.83;25.90;;;;;;;;;;5092069;28;20309;-70
2023/09/03 05:17:46;;;;;;;37.87;26.00;;;;;;;;;;5057230;28;20278;-69
2023/09/03 05:20:12;;;;;;;38.23;25.13;;;;;;;;;;5030902;28;20298;-69
2023/09/03 05:22:37;;;;;;;38.72;24.73;;;;;;;;;;5031178;28;20359;-68
2023/09/03 05:25:03;;;;;;;39.13;27.38;;;;;;;;;;5033983;28;20025;-68
2023/09/03 05:27:29;;;;;;;42.83;27.98;;;;;;;;;;5040935;28;20019;-69
2023/09/03 05:29:54;;;;;;;42.80;28.75;;;;;;;;;;5061779;28;20362;-70
2023/09/03 05:32:19;;;;;;;51.00;31.03;;;;;;;;;;5086877;28;20060;-69
2023/09/03 05:34:45;;;;;;;44.47;30.70;;;;;;;;;;5085599;28;20270;-70
2023/09/03 05:37:10;;;;;;;48.67;30.63;;;;;;;;;;5058608;28;20965;-68
2023/09/03 05:39:35;;;;;;;50.97;33.37;;;;;;;;;;5063626;28;20286;-68
2023/09/03 05:42:00;;;;;;;47.53;28.05;;;;;;;;;;5092033;28;20357;-68
2023/09/03 05:44:26;;;;;;;48.28;31.55;;;;;;;;;;5071451;28;20024;-68
2023/09/03 05:46:51;;;;;;;40.75;28.70;;;;;;;;;;5041938;28;20181;-69
2023/09/03 05:49:16;;;;;;;45.67;28.53;;;;;;;;;;5042498;28;20890;-69
2023/09/03 05:51:41;;;;;;;43.50;30.63;;;;;;;;;;5047132;28;20274;-68
2023/09/03 05:54:07;;;;;;;47.05;32.42;;;;;;;;;;5090443;28;20509;-69
2023/09/03 05:56:34;;;;;;;48.10;32.42;;;;;;;;;;5073431;28;20028;-70
2023/09/03 05:59:04;;;;;;;49.00;32.00;;;;;;;;;;5087063;28;20093;-69
2023/09/03 06:01:29;;;;;;;50.53;34.67;;;;;;;;;;5084258;28;20032;-69
2023/09/03 06:03:54;;;;;;;56.70;35.97;;;;;;;;;;5080590;28;20035;-71
2023/09/03 06:06:19;;;;;;;58.20;37.63;;;;;;;;;;5035618;28;20968;-69
2023/09/03 06:08:45;;;;;;;55.65;37.70;;;;;;;;;;5047815;28;20616;-68
2023/09/03 06:11:10;;;;;;;61.27;38.50;;;;;;;;;;5088615;28;20017;-70
2023/09/03 06:13:35;;;;;;;58.58;39.17;;;;;;;;;;5091462;28;20327;-70
2023/09/03 06:16:00;;;;;;;59.78;39.08;;;;;;;;;;5077834;28;20478;-69
2023/09/03 06:18:26;;;;;;;69.47;40.05;;;;;;;;;;5091526;28;20032;-68
2023/09/03 06:20:51;;;;;;;54.33;36.50;;;;;;;;;;5090971;28;20024;-69
2023/09/03 06:23:18;;;;;;;51.92;36.90;;;;;;;;;;5091555;28;20028;-69
2023/09/03 06:25:47;;;;;;;59.80;38.97;;;;;;;;;;5088603;28;20250;-69
2023/09/03 06:28:13;;;;;;;68.05;39.85;;;;;;;;;;5046532;28;20109;-70
2023/09/03 06:30:38;;;;;;;57.00;38.15;;;;;;;;;;5047801;28;20032;-69
2023/09/03 06:33:04;;;;;;;64.90;38.85;;;;;;;;;;5052638;28;20051;-69
2023/09/03 06:35:29;;;;;;;61.58;39.90;;;;;;;;;;5052702;28;20063;-69
2023/09/03 06:37:57;;;;;;;61.97;40.67;;;;;;;;;;5078075;28;20021;-68
2023/09/03 06:40:23;;;;;;;64.28;40.63;;;;;;;;;;5097871;28;20028;-70
2023/09/03 06:42:48;;;;;;;62.33;40.13;;;;;;;;;;5097422;28;20024;-69
2023/09/03 06:45:13;;;;;;;59.43;38.00;;;;;;;;;;5097997;28;20031;-69
2023/09/03 06:47:39;;;;;;;64.78;40.45;;;;;;;;;;5097580;28;20760;-68
2023/09/03 06:50:05;;;;;;;65.28;40.75;;;;;;;;;;5097540;28;20035;-68
2023/09/03 06:52:30;;;;;;;64.20;40.53;;;;;;;;;;5097509;28;20028;-69
2023/09/03 06:54:56;;;;;;;66.15;40.20;;;;;;;;;;5088085;28;20498;-69
2023/09/03 06:57:21;;;;;;;64.00;40.60;;;;;;;;;;5078087;28;20023;-69
2023/09/03 06:59:46;;;;;;;59.45;41.15;;;;;;;;;;5078783;28;20037;-69
2023/09/03 07:02:12;;;;;;;65.28;42.13;;;;;;;;;;5079378;28;20013;-70
2023/09/03 07:04:37;;;;;;;69.60;42.63;;;;;;;;;;5078472;28;20094;-68
2023/09/03 07:07:03;;;;;;;72.25;42.85;;;;;;;;;;5084498;28;20012;-68
2023/09/03 07:09:29;;;;;;;63.05;40.53;;;;;;;;;;5078895;28;20104;-69
2023/09/03 07:11:54;;;;;;;67.28;42.70;;;;;;;;;;5078661;28;20020;-69
2023/09/03 07:14:19;;;;;;;66.30;42.70;;;;;;;;;;5064268;28;20028;-70
2023/09/03 07:16:44;;;;;;;66.25;42.63;;;;;;;;;;5038581;28;20032;-70
2023/09/03 07:19:10;;;;;;;61.25;40.75;;;;;;;;;;5033137;28;20085;-69
2023/09/03 07:21:35;;;;;;;65.47;40.28;;;;;;;;;;5059423;28;20055;-69
2023/09/03 07:24:00;;;;;;;69.93;44.70;;;;;;;;;;5046852;28;20026;-68
2023/09/03 07:26:26;;;;;;;64.25;41.30;;;;;;;;;;5043376;28;20253;-68
2023/09/03 07:28:51;;;;;;;72.90;44.33;;;;;;;;;;5043330;28;20074;-68
2023/09/03 07:31:16;;;;;;;65.03;43.23;;;;;;;;;;5044730;28;20377;-68
2023/09/03 07:33:41;;;;;;;65.00;41.47;;;;;;;;;;5056104;28;20400;-69
2023/09/03 07:36:10;;;;;;;68.05;42.35;;;;;;;;;;5061747;28;20822;-69
2023/09/03 07:38:36;;;;;;;66.53;46.08;;;;;;;;;;5084595;28;20040;-69
2023/09/03 07:41:02;;;;;;;68.55;43.42;;;;;;;;;;5073366;28;20024;-69
2023/09/03 07:43:27;;;;;;;66.25;43.10;;;;;;;;;;5073939;28;20376;-69
2023/09/03 07:45:52;;;;;;;75.90;46.97;;;;;;;;;;5074341;28;20044;-70
2023/09/03 07:48:17;;;;;;;73.77;46.13;;;;;;;;;;5074158;28;20390;-69
2023/09/03 07:50:43;;;;;;;71.40;46.75;;;;;;;;;;5073601;28;20266;-70
2023/09/03 07:53:08;;;;;;;67.50;45.27;;;;;;;;;;5073661;28;20025;-69
2023/09/03 07:55:33;;;;;;;74.90;46.78;;;;;;;;;;5073794;28;20271;-70
2023/09/03 07:57:59;;;;;;;72.17;47.93;;;;;;;;;;5082161;28;20032;-70
2023/09/03 08:00:24;;;;;;;63.13;45.55;;;;;;;;;;5080207;28;20377;-70
2023/09/03 08:02:50;;;;;;;70.10;48.30;;;;;;;;;;5076151;28;20020;-69
2023/09/03 08:05:16;;;;;;;64.73;45.53;;;;;;;;;;5076671;28;20405;-70
2023/09/03 08:07:42;;;;;;;61.42;45.45;;;;;;;;;;5079885;28;20296;-70
2023/09/03 08:10:07;;;;;;;62.38;44.45;;;;;;;;;;5078660;28;20028;-70
2023/09/03 08:12:33;;;;;;;62.55;44.08;;;;;;;;;;5077831;28;20031;-70
2023/09/03 08:14:58;;;;;;;58.35;44.85;;;;;;;;;;5087849;28;20032;-70
2023/09/03 08:17:23;;;;;;;60.03;44.70;;;;;;;;;;5077251;28;20072;-70
2023/09/03 08:19:50;;;;;;;54.00;41.17;;;;;;;;;;5079458;28;20279;-69
2023/09/03 08:22:15;;;;;;;51.63;40.80;;;;;;;;;;5075412;28;20432;-69
2023/09/03 08:24:40;;;;;;;62.50;45.33;;;;;;;;;;5090340;28;20024;-69
2023/09/03 08:27:06;;;;;;;62.27;44.23;;;;;;;;;;5082421;28;20020;-69
2023/09/03 08:29:31;;;;;;;54.67;40.55;;;;;;;;;;5082731;28;20285;-69
2023/09/03 08:31:56;;;;;;;52.00;40.20;;;;;;;;;;5076708;28;20119;-68
2023/09/03 08:34:21;;;;;;;58.00;38.33;;;;;;;;;;5080891;28;20054;-70
2023/09/03 08:36:47;;;;;;;51.63;37.92;;;;;;;;;;5088127;28;20324;-69
2023/09/03 08:39:12;;;;;;;49.10;38.10;;;;;;;;;;5072973;28;20398;-69
2023/09/03 08:41:38;;;;;;;48.30;36.28;;;;;;;;;;5081931;28;20078;-69
2023/09/03 08:44:06;;;;;;;46.75;36.58;;;;;;;;;;5083838;28;20028;-69
2023/09/03 08:46:34;;;;;;;50.35;35.60;;;;;;;;;;5079073;28;20451;-69
2023/09/03 08:49:00;;;;;;;43.08;33.78;;;;;;;;;;5076764;28;20427;-69
2023/09/03 08:51:26;;;;;;;42.97;34.03;;;;;;;;;;5074858;28;20016;-68
2023/09/03 08:53:52;;;;;;;39.80;31.58;;;;;;;;;;5077541;28;20032;-68
2023/09/03 08:56:17;;;;;;;39.70;32.33;;;;;;;;;;5083622;28;20387;-69
2023/09/03 08:58:43;;;;;;;40.42;31.23;;;;;;;;;;5076445;28;20020;-69
2023/09/03 09:01:09;;;;;;;37.25;30.98;;;;;;;;;;5065440;28;20020;-69
2023/09/03 09:03:36;;;;;;;40.28;32.78;;;;;;;;;;5076030;28;20467;-68
2023/09/03 09:06:02;;;;;;;41.60;33.33;;;;;;;;;;5076754;28;20025;-69
2023/09/03 09:08:27;;;;;;;39.25;31.63;;;;;;;;;;5082847;28;20020;-69
2023/09/03 09:10:53;;;;;;;37.88;30.77;;;;;;;;;;5083940;28;20019;-70
2023/09/03 09:13:21;;;;;;;45.50;31.48;;;;;;;;;;5078257;28;20028;-69
2023/09/03 09:15:46;;;;;;;43.20;31.40;;;;;;;;;;5076330;28;20039;-68
2023/09/03 09:18:11;;;;;;;39.08;31.13;;;;;;;;;;5074676;28;20028;-69
2023/09/03 09:20:37;;;;;;;34.93;29.13;;;;;;;;;;5073665;28;20406;-69
2023/09/03 09:23:03;;;;;;;35.60;29.50;;;;;;;;;;5076180;28;20278;-70
2023/09/03 09:25:28;;;;;;;31.10;27.52;;;;;;;;;;5076812;28;20022;-69
2023/09/03 09:27:54;;;;;;;31.17;26.20;;;;;;;;;;5073928;28;20529;-69
2023/09/03 09:30:22;;;;;;;34.88;29.50;;;;;;;;;;5083588;28;20023;-69
2023/09/03 09:32:47;;;;;;;28.60;25.42;;;;;;;;;;5074180;28;20109;-69
2023/09/03 09:35:22;;;;;;;29.13;25.65;;;;;;;;;;5076787;28;20115;-69
2023/09/03 09:37:47;;;;;;;24.98;22.27;;;;;;;;;;5073967;28;20028;-69
2023/09/03 09:40:14;;;;;;;22.15;19.80;;;;;;;;;;5073389;28;20530;-69
2023/09/03 09:42:52;;;;;;;23.60;19.02;;;;;;;;;;5078872;28;20530;-70
2023/09/03 09:45:17;;;;;;;21.00;18.38;;;;;;;;;;5075814;28;20029;-69
2023/09/03 09:47:42;;;;;;;21.37;16.90;;;;;;;;;;5056055;28;20047;-70
2023/09/03 09:50:08;;;;;;;21.60;18.80;;;;;;;;;;5030650;28;20267;-70
2023/09/03 09:52:35;;;;;;;23.88;18.58;;;;;;;;;;5031474;28;21107;-70
2023/09/03 09:55:00;;;;;;;20.83;17.67;;;;;;;;;;5034316;28;20083;-70
2023/09/03 09:57:27;;;;;;;17.10;14.52;;;;;;;;;;5033816;28;21065;-70
2023/09/03 09:59:53;;;;;;;22.52;16.58;;;;;;;;;;5033427;28;20860;-69
2023/09/03 10:02:20;;;;;;;19.23;17.00;;;;;;;;;;5036555;28;20024;-70
2023/09/03 10:04:46;;;;;;;19.42;14.50;;;;;;;;;;5038610;28;20020;-69
2023/09/03 10:07:12;;;;;;;19.20;16.27;;;;;;;;;;5041697;28;20023;-70
2023/09/03 10:09:38;;;;;;;19.60;15.80;;;;;;;;;;5045146;28;20020;-67
2023/09/03 10:12:07;;;;;;;21.90;17.48;;;;;;;;;;5079423;28;20025;-68
2023/09/03 10:14:32;;;;;;;24.55;18.25;;;;;;;;;;5087627;28;20020;-68
2023/09/03 10:17:02;;;;;;;21.25;17.90;;;;;;;;;;5084371;28;20024;-68
2023/09/03 10:19:28;;;;;;;22.67;19.40;;;;;;;;;;5071366;28;20095;-68
2023/09/03 10:21:54;;;;;;;25.58;19.77;;;;;;;;;;5070867;28;20111;-70
2023/09/03 10:24:20;;;;;;;16.05;14.35;;;;;;;;;;5070804;28;20082;-71
2023/09/03 10:26:49;;;;;;;15.05;11.05;;;;;;;;;;5070619;28;20062;-69
2023/09/03 10:29:19;;;;;;;16.67;11.82;;;;;;;;;;5083230;28;20028;-69
2023/09/03 10:31:44;;;;;;;13.05;10.50;;;;;;;;;;5082794;28;20122;-68
2023/09/03 10:34:10;;;;;;;13.23;9.77;;;;;;;;;;5078025;28;20107;-68
2023/09/03 10:36:35;;;;;;;12.93;10.48;;;;;;;;;;5077054;28;20031;-68
2023/09/03 10:39:20;;;;;;;12.52;8.60;;;;;;;;;;5076836;28;20412;-68
2023/09/03 10:41:46;;;;;;;12.57;8.88;;;;;;;;;;5078119;28;20036;-68
2023/09/03 10:44:15;;;;;;;13.73;9.93;;;;;;;;;;5075233;28;20055;-69
2023/09/03 10:46:58;;;;;;;13.25;9.68;;;;;;;;;;5083243;28;20283;-69
2023/09/03 10:49:38;;;;;;;10.88;7.78;;;;;;;;;;5078225;28;20016;-68
2023/09/03 10:52:24;;;;;;;10.25;7.85;;;;;;;;;;5083195;28;20048;-67
2023/09/03 10:55:08;;;;;;;9.00;6.93;;;;;;;;;;5082061;28;20024;-67
2023/09/03 10:57:33;;;;;;;9.20;7.60;;;;;;;;;;5072029;28;20402;-67
2023/09/03 11:00:00;;;;;;;9.37;7.50;;;;;;;;;;5079951;28;20024;-69
2023/09/03 11:02:28;;;;;;;12.20;8.98;;;;;;;;;;5082393;28;20365;-70
2023/09/03 11:05:14;;;;;;;12.65;8.35;;;;;;;;;;5073301;28;20046;-64
2023/09/03 11:07:40;;;;;;;10.73;8.40;;;;;;;;;;5076335;28;20072;-69
2023/09/03 11:10:25;;;;;;;8.65;6.97;;;;;;;;;;5076692;28;20379;-69
2023/09/03 11:12:50;;;;;;;6.97;5.60;;;;;;;;;;5072604;28;20033;-69
2023/09/03 11:15:16;;;;;;;8.57;5.38;;;;;;;;;;5076507;28;20027;-69
2023/09/03 11:17:42;;;;;;;8.10;5.90;;;;;;;;;;5074717;28;20025;-69
2023/09/03 11:20:11;;;;;;;7.60;5.47;;;;;;;;;;5075814;28;20103;-70
2023/09/03 11:22:37;;;;;;;6.32;3.67;;;;;;;;;;5074728;28;20024;-69
2023/09/03 11:25:02;;;;;;;5.32;4.00;;;;;;;;;;5075059;28;20567;-69
2023/09/03 11:27:28;;;;;;;5.65;3.97;;;;;;;;;;5075216;28;20024;-69
2023/09/03 11:30:02;;;;;;;4.93;4.00;;;;;;;;;;5075619;28;20031;-69
2023/09/03 11:32:37;;;;;;;6.65;5.03;;;;;;;;;;5080050;28;20266;-69
2023/09/03 11:35:03;;;;;;;7.57;5.80;;;;;;;;;;5074636;28;20035;-70
2023/09/03 11:37:29;;;;;;;6.13;5.25;;;;;;;;;;5075658;28;20028;-69
2023/09/03 11:39:54;;;;;;;8.30;6.32;;;;;;;;;;5074207;28;20037;-69
2023/09/03 11:42:19;;;;;;;6.97;5.30;;;;;;;;;;5082172;28;20027;-70
2023/09/03 11:44:49;;;;;;;7.67;4.40;;;;;;;;;;5075063;28;20263;-70
2023/09/03 11:47:15;;;;;;;7.28;5.07;;;;;;;;;;5075499;28;20275;-68
2023/09/03 11:49:45;;;;;;;6.63;4.30;;;;;;;;;;5078267;28;20036;-70
2023/09/03 11:52:14;;;;;;;7.07;4.80;;;;;;;;;;5075723;28;20324;-69
2023/09/03 11:54:39;;;;;;;6.20;4.90;;;;;;;;;;5076995;28;20356;-69
2023/09/03 11:57:05;;;;;;;5.03;3.65;;;;;;;;;;5076877;28;20020;-69
2023/09/03 11:59:31;;;;;;;7.03;4.53;;;;;;;;;;5077610;28;20531;-70
2023/09/03 12:01:56;;;;;;;4.70;3.47;;;;;;;;;;5075494;28;20103;-70
2023/09/03 12:04:22;;;;;;;6.00;4.72;;;;;;;;;;5085650;28;20282;-69
2023/09/03 12:06:47;;;;;;;6.25;4.70;;;;;;;;;;5087708;28;20085;-68
2023/09/03 12:09:13;;;;;;;9.07;4.82;;;;;;;;;;5079292;28;20032;-70
2023/09/03 12:11:38;;;;;;;6.13;3.88;;;;;;;;;;5080759;28;20031;-70
2023/09/03 12:14:03;;;;;;;6.10;4.97;;;;;;;;;;5092201;28;20020;-68
2023/09/03 12:16:28;;;;;;;5.60;4.33;;;;;;;;;;5074638;28;20671;-70
2023/09/03 12:18:55;;;;;;;5.47;4.43;;;;;;;;;;5072945;28;20277;-68
2023/09/03 12:21:29;;;;;;;5.72;4.70;;;;;;;;;;5072938;28;20283;-69
2023/09/03 12:23:55;;;;;;;4.75;3.92;;;;;;;;;;5077980;28;20138;-69
2023/09/03 12:26:23;;;;;;;5.00;3.47;;;;;;;;;;5073747;28;20468;-69
2023/09/03 12:28:48;;;;;;;3.92;3.25;;;;;;;;;;5086263;28;20332;-69
2023/09/03 12:31:14;;;;;;;5.07;4.33;;;;;;;;;;5075232;28;20027;-69
2023/09/03 12:33:44;;;;;;;6.93;5.33;;;;;;;;;;5072219;28;20470;-69
2023/09/03 12:36:10;;;;;;;5.07;3.97;;;;;;;;;;5081616;28;20052;-70
2023/09/03 12:38:48;;;;;;;6.07;4.20;;;;;;;;;;5081572;28;20024;-70
2023/09/03 12:41:13;;;;;;;4.90;3.72;;;;;;;;;;5087733;28;20020;-69
2023/09/03 12:43:39;;;;;;;5.00;3.30;;;;;;;;;;5083380;28;20027;-70
2023/09/03 12:46:04;;;;;;;4.20;3.17;;;;;;;;;;5076165;28;20032;-70
2023/09/03 12:48:29;;;;;;;4.95;3.40;;;;;;;;;;5087448;28;20073;-70
2023/09/03 12:50:55;;;;;;;4.10;2.70;;;;;;;;;;5088524;28;20092;-69
2023/09/03 12:53:20;;;;;;;3.83;2.90;;;;;;;;;;5076663;28;20017;-69
2023/09/03 12:55:45;;;;;;;4.20;2.77;;;;;;;;;;5083407;28;20273;-69
2023/09/03 12:58:12;;;;;;;3.65;2.85;;;;;;;;;;5089431;28;20654;-69
2023/09/03 13:00:38;;;;;;;5.47;3.30;;;;;;;;;;5078392;28;20023;-69
2023/09/03 13:03:03;;;;;;;4.27;3.10;;;;;;;;;;5080261;28;20036;-69
2023/09/03 13:05:29;;;;;;;8.00;3.78;;;;;;;;;;5086267;28;20753;-69
2023/09/03 13:07:54;;;;;;;4.63;3.20;;;;;;;;;;5080157;28;20025;-70
2023/09/03 13:10:19;;;;;;;6.97;2.93;;;;;;;;;;5075503;28;20103;-70
2023/09/03 13:12:45;;;;;;;5.27;2.40;;;;;;;;;;5080233;28;20323;-69
2023/09/03 13:15:12;;;;;;;3.88;2.70;;;;;;;;;;5088188;28;20020;-69
2023/09/03 13:17:37;;;;;;;4.25;2.95;;;;;;;;;;5077516;28;20012;-69
2023/09/03 13:20:02;;;;;;;3.03;2.25;;;;;;;;;;5084496;28;20032;-70
2023/09/03 13:22:27;;;;;;;4.53;2.88;;;;;;;;;;5081977;28;20569;-70
2023/09/03 13:24:53;;;;;;;3.73;2.47;;;;;;;;;;5078858;28;20012;-70
2023/09/03 13:27:18;;;;;;;3.50;2.47;;;;;;;;;;5078338;28;20270;-69
2023/09/03 13:29:43;;;;;;;4.07;2.27;;;;;;;;;;5081183;28;20742;-70
2023/09/03 13:32:08;;;;;;;3.43;2.23;;;;;;;;;;5081009;28;20110;-69
2023/09/03 13:34:34;;;;;;;4.73;2.70;;;;;;;;;;5075725;28;20027;-70
2023/09/03 13:36:59;;;;;;;3.58;2.70;;;;;;;;;;5086366;28;20031;-70
2023/09/03 13:39:24;;;;;;;4.37;2.67;;;;;;;;;;5078132;28;20111;-69
2023/09/03 13:41:49;;;;;;;3.67;2.43;;;;;;;;;;5081914;28;20070;-70
2023/09/03 13:44:15;;;;;;;5.15;3.72;;;;;;;;;;5073020;28;20028;-70
2023/09/03 13:46:40;;;;;;;4.83;3.53;;;;;;;;;;5071859;28;20109;-70
2023/09/03 13:49:05;;;;;;;4.55;3.42;;;;;;;;;;5071784;28;20016;-70
2023/09/03 13:51:31;;;;;;;4.40;3.00;;;;;;;;;;5075331;28;20052;-70
2023/09/03 13:53:56;;;;;;;4.07;2.83;;;;;;;;;;5076332;28;20273;-70
2023/09/03 13:56:21;;;;;;;4.22;2.92;;;;;;;;;;5073326;28;20048;-69
2023/09/03 13:58:47;;;;;;;4.30;2.90;;;;;;;;;;5071900;28;20035;-70
2023/09/03 14:01:12;;;;;;;3.80;2.90;;;;;;;;;;5079233;28;20020;-70
2023/09/03 14:03:37;;;;;;;3.97;2.83;;;;;;;;;;5087297;28;20095;-69
2023/09/03 14:06:06;;;;;;;6.47;3.75;;;;;;;;;;5080038;28;20055;-70
2023/09/03 14:08:31;;;;;;;5.60;3.17;;;;;;;;;;5081512;28;20458;-69
2023/09/03 14:10:57;;;;;;;5.63;3.30;;;;;;;;;;5072284;28;20025;-70
2023/09/03 14:13:23;;;;;;;5.55;3.45;;;;;;;;;;5071878;28;20047;-70
2023/09/03 14:15:48;;;;;;;4.43;3.00;;;;;;;;;;5071443;28;20036;-70
2023/09/03 14:18:13;;;;;;;3.83;2.90;;;;;;;;;;5080712;28;20369;-70